createdAt,value
2022-09-18T00:01:43.440Z,59.18
2022-09-18T00:04:13.847Z,59.63
2022-09-18T00:06:41.445Z,58.84
2022-09-18T00:09:09.683Z,56.36
2022-09-18T00:11:39.978Z,58.87
2022-09-18T00:14:07.917Z,57.43
2022-09-18T00:16:35.441Z,56.81
2022-09-18T00:19:03.021Z,57.71
2022-09-18T00:21:31.957Z,57.62
2022-09-18T00:23:59.824Z,58.34
2022-09-18T00:26:27.586Z,58.11
2022-09-18T00:28:55.211Z,57.77
2022-09-18T00:31:26.318Z,57.06
2022-09-18T00:33:54.032Z,56.54
2022-09-18T00:36:21.336Z,58.22
2022-09-18T00:38:48.575Z,59.23
2022-09-18T00:41:23.892Z,59.14
2022-09-18T00:43:54.182Z,59.83
2022-09-18T00:46:29.222Z,61.56
2022-09-18T00:49:18.885Z,60.33
2022-09-18T00:51:46.759Z,60.16
2022-09-18T00:54:24.327Z,58.50
2022-09-18T00:56:52.863Z,57.47
2022-09-18T00:59:22.541Z,57.94
2022-09-18T01:01:49.688Z,58.12
2022-09-18T01:04:17.093Z,58.15
2022-09-18T01:06:46.855Z,60.14
2022-09-18T01:09:27.965Z,59.48
2022-09-18T01:12:00.732Z,55.80
2022-09-18T01:14:27.834Z,55.12
2022-09-18T01:16:55.024Z,57.59
2022-09-18T01:19:40.990Z,57.91
2022-09-18T01:22:25.884Z,56.63
2022-09-18T01:24:53.266Z,56.79
2022-09-18T01:27:43.383Z,56.65
2022-09-18T01:30:11.391Z,57.66
2022-09-18T01:32:41.491Z,55.01
2022-09-18T01:35:36.900Z,55.56
2022-09-18T01:38:15.830Z,53.82
2022-09-18T01:40:44.795Z,54.12
2022-09-18T01:43:13.223Z,53.39
2022-09-18T01:45:43.015Z,51.75
2022-09-18T01:48:13.000Z,51.51
2022-09-18T01:50:45.567Z,54.01
2022-09-18T01:53:20.124Z,53.58
2022-09-18T01:55:50.143Z,55.59
2022-09-18T01:58:19.062Z,52.12
2022-09-18T02:00:48.710Z,53.48
2022-09-18T02:03:16.893Z,53.25
2022-09-18T02:05:45.801Z,53.63
2022-09-18T02:08:32.618Z,52.03
2022-09-18T02:11:13.594Z,51.02
2022-09-18T02:13:45.307Z,53.59
2022-09-18T02:16:15.215Z,54.49
2022-09-18T02:18:43.885Z,52.78
2022-09-18T02:21:12.132Z,51.38
2022-09-18T02:23:39.974Z,51.59
2022-09-18T02:26:07.425Z,50.42
2022-09-18T02:28:34.958Z,50.44
2022-09-18T02:31:02.182Z,49.58
2022-09-18T02:33:32.467Z,48.43
2022-09-18T02:36:21.135Z,50.92
2022-09-18T02:38:55.309Z,51.77
2022-09-18T02:41:29.565Z,51.25
2022-09-18T02:44:06.135Z,51.64
2022-09-18T02:46:47.238Z,48.33
2022-09-18T02:49:17.162Z,50.17
2022-09-18T02:51:52.515Z,49.01
2022-09-18T02:54:27.229Z,51.00
2022-09-18T02:57:11.715Z,48.70
2022-09-18T02:59:39.568Z,48.40
2022-09-18T03:02:07.661Z,48.60
2022-09-18T03:04:35.166Z,53.05
2022-09-18T03:07:02.403Z,52.00
2022-09-18T03:09:30.111Z,51.44
2022-09-18T03:11:57.694Z,49.95
2022-09-18T03:14:25.801Z,48.92
2022-09-18T03:16:53.211Z,47.07
2022-09-18T03:19:20.367Z,47.86
2022-09-18T03:21:47.667Z,47.55
2022-09-18T03:24:15.147Z,48.53
2022-09-18T03:26:42.648Z,48.03
2022-09-18T03:29:10.209Z,47.45
2022-09-18T03:31:38.728Z,47.34
2022-09-18T03:34:06.370Z,47.96
2022-09-18T03:36:33.544Z,46.93
2022-09-18T03:39:01.191Z,47.89
2022-09-18T03:41:29.459Z,46.33
2022-09-18T03:43:56.833Z,46.40
2022-09-18T03:46:24.630Z,46.69
2022-09-18T03:48:52.386Z,45.23
2022-09-18T03:51:22.026Z,43.85
2022-09-18T03:53:51.120Z,45.06
2022-09-18T03:56:18.560Z,44.92
2022-09-18T03:58:48.769Z,45.39
2022-09-18T04:01:17.324Z,45.67
2022-09-18T04:03:46.625Z,44.48
2022-09-18T04:06:19.085Z,44.32
2022-09-18T04:08:50.082Z,47.05
2022-09-18T04:11:19.613Z,46.44
2022-09-18T04:13:46.840Z,47.34
2022-09-18T04:16:14.335Z,47.17
2022-09-18T04:18:41.560Z,48.49
2022-09-18T04:21:08.877Z,47.39
2022-09-18T04:23:36.338Z,47.75
2022-09-18T04:26:09.044Z,48.32
2022-09-18T04:28:39.794Z,48.22
2022-09-18T04:31:07.200Z,47.78
2022-09-18T04:33:34.431Z,47.66
2022-09-18T04:36:05.906Z,48.64
2022-09-18T04:38:34.530Z,49.33
2022-09-18T04:41:01.770Z,48.08
2022-09-18T04:43:30.045Z,49.98
2022-09-18T04:45:57.199Z,49.41
2022-09-18T04:48:24.330Z,47.98
2022-09-18T04:50:51.907Z,49.28
2022-09-18T04:53:19.167Z,47.90
2022-09-18T04:55:47.020Z,49.52
2022-09-18T04:58:16.389Z,47.72
2022-09-18T05:00:43.982Z,47.69
2022-09-18T05:03:11.216Z,46.50
2022-09-18T05:05:38.970Z,46.77
2022-09-18T05:08:06.518Z,48.74
2022-09-18T05:10:34.287Z,48.54
2022-09-18T05:13:03.745Z,46.98
2022-09-18T05:15:31.197Z,47.76
2022-09-18T05:18:01.574Z,47.51
2022-09-18T05:20:30.173Z,47.46
2022-09-18T05:23:00.195Z,47.35
2022-09-18T05:25:29.018Z,46.04
2022-09-18T05:27:57.202Z,47.69
2022-09-18T05:30:24.852Z,46.68
2022-09-18T05:32:58.959Z,46.71
2022-09-18T05:35:27.534Z,47.89
2022-09-18T05:37:55.046Z,45.74
2022-09-18T05:40:23.861Z,45.07
2022-09-18T05:42:53.157Z,43.24
2022-09-18T05:45:20.885Z,45.56
2022-09-18T05:47:58.176Z,44.21
2022-09-18T05:50:26.387Z,46.42
2022-09-18T05:53:12.769Z,47.70
2022-09-18T05:55:40.666Z,46.12
2022-09-18T05:58:13.078Z,45.57
2022-09-18T06:00:40.873Z,45.49
2022-09-18T06:03:14.326Z,46.22
2022-09-18T06:05:41.685Z,45.27
2022-09-18T06:08:11.082Z,47.05
2022-09-18T06:10:39.455Z,48.17
2022-09-18T06:13:07.864Z,47.77
2022-09-18T06:15:39.735Z,48.84
2022-09-18T06:18:09.169Z,48.75
2022-09-18T06:20:36.816Z,49.74
2022-09-18T06:23:04.346Z,49.42
2022-09-18T06:25:33.080Z,50.07
2022-09-18T06:28:00.526Z,48.03
2022-09-18T06:30:28.496Z,48.85
2022-09-18T06:32:56.919Z,48.87
2022-09-18T06:35:24.468Z,48.82
2022-09-18T06:37:51.644Z,50.06
2022-09-18T06:40:19.044Z,49.37
2022-09-18T06:42:46.941Z,49.06
2022-09-18T06:45:15.315Z,47.18
2022-09-18T06:47:44.496Z,47.58
2022-09-18T06:50:12.562Z,50.13
2022-09-18T06:52:39.745Z,49.58
2022-09-18T06:55:07.010Z,49.37
2022-09-18T06:57:34.398Z,47.77
2022-09-18T07:00:01.645Z,48.21
2022-09-18T07:02:29.111Z,46.91
2022-09-18T07:04:58.222Z,47.68
2022-09-18T07:07:25.440Z,48.91
2022-09-18T07:09:52.846Z,48.47
2022-09-18T07:12:21.380Z,47.45
2022-09-18T07:14:48.702Z,46.67
2022-09-18T07:17:19.124Z,46.96
2022-09-18T07:19:48.957Z,47.62
2022-09-18T07:22:16.400Z,46.44
2022-09-18T07:24:43.679Z,44.95
2022-09-18T07:27:11.139Z,45.94
2022-09-18T07:29:40.530Z,46.06
2022-09-18T07:32:08.519Z,44.85
2022-09-18T07:34:37.725Z,45.03
2022-09-18T07:37:04.912Z,44.71
2022-09-18T07:39:32.082Z,44.46
2022-09-18T07:42:05.648Z,45.98
2022-09-18T07:44:36.694Z,44.53
2022-09-18T07:47:04.292Z,44.55
2022-09-18T07:49:33.050Z,44.56
2022-09-18T07:52:01.936Z,45.59
2022-09-18T07:54:30.285Z,45.72
2022-09-18T07:56:58.012Z,45.19
2022-09-18T07:59:27.227Z,43.31
2022-09-18T08:01:56.014Z,43.92
2022-09-18T08:04:24.115Z,43.66
2022-09-18T08:07:03.402Z,43.52
2022-09-18T08:09:31.406Z,43.43
2022-09-18T08:11:58.787Z,44.24
2022-09-18T08:14:28.891Z,44.75
2022-09-18T08:16:57.909Z,44.48
2022-09-18T08:19:25.157Z,42.52
2022-09-18T08:21:52.623Z,43.86
2022-09-18T08:24:22.001Z,42.64
2022-09-18T08:26:51.050Z,41.85
2022-09-18T08:29:19.437Z,42.77
2022-09-18T08:31:48.658Z,41.88
2022-09-18T08:34:16.000Z,43.57
2022-09-18T08:36:43.531Z,42.31
2022-09-18T08:39:11.209Z,42.38
2022-09-18T08:41:55.650Z,42.59
2022-09-18T08:44:26.080Z,42.87
2022-09-18T08:47:04.947Z,42.05
2022-09-18T08:49:41.180Z,41.47
2022-09-18T08:52:17.444Z,40.83
2022-09-18T08:54:56.256Z,42.09
2022-09-18T08:57:28.204Z,39.80
2022-09-18T08:59:59.282Z,40.39
2022-09-18T09:02:52.915Z,40.37
2022-09-18T09:05:21.485Z,42.49
2022-09-18T09:08:12.103Z,41.61
2022-09-18T09:10:39.491Z,40.68
2022-09-18T09:13:13.499Z,40.57
2022-09-18T09:16:00.102Z,41.66
2022-09-18T09:18:38.612Z,42.08
2022-09-18T09:21:13.540Z,41.97
2022-09-18T09:23:59.599Z,42.07
2022-09-18T09:26:34.392Z,42.26
2022-09-18T09:29:04.401Z,41.16
2022-09-18T09:31:38.726Z,41.35
2022-09-18T09:34:19.794Z,42.54
2022-09-18T09:36:48.440Z,41.66
2022-09-18T09:39:36.320Z,40.87
2022-09-18T09:42:08.896Z,39.99
2022-09-18T09:44:38.343Z,41.37
2022-09-18T09:47:06.089Z,40.75
2022-09-18T09:49:39.127Z,40.36
2022-09-18T09:52:12.832Z,42.28
2022-09-18T09:54:41.480Z,43.32
2022-09-18T09:57:09.250Z,42.81
2022-09-18T09:59:37.058Z,43.08
2022-09-18T10:02:18.045Z,42.28
2022-09-18T10:04:54.578Z,42.55
2022-09-18T10:07:23.777Z,42.91
2022-09-18T10:09:58.249Z,43.45
2022-09-18T10:12:44.509Z,40.54
2022-09-18T10:15:14.198Z,40.89
2022-09-18T10:17:41.477Z,40.17
2022-09-18T10:20:11.505Z,41.18
2022-09-18T10:22:39.157Z,41.26
2022-09-18T10:25:07.832Z,42.83
2022-09-18T10:27:35.891Z,43.69
2022-09-18T10:30:13.395Z,44.05
2022-09-18T10:32:44.233Z,43.01
2022-09-18T10:35:38.360Z,41.76
2022-09-18T10:38:09.981Z,41.80
2022-09-18T10:40:39.761Z,41.52
2022-09-18T10:43:07.618Z,41.78
2022-09-18T10:45:38.150Z,41.95
2022-09-18T10:48:13.823Z,40.36
2022-09-18T10:50:51.807Z,39.25
2022-09-18T10:53:30.696Z,41.11
2022-09-18T10:56:03.399Z,41.04
2022-09-18T10:58:31.854Z,40.74
2022-09-18T11:01:00.562Z,39.41
2022-09-18T11:03:40.434Z,39.85
2022-09-18T11:06:18.365Z,39.78
2022-09-18T11:08:46.887Z,38.54
2022-09-18T11:11:22.863Z,37.88
2022-09-18T11:13:51.664Z,38.71
2022-09-18T11:16:25.266Z,38.46
2022-09-18T11:19:07.610Z,39.05
2022-09-18T11:21:47.023Z,38.67
2022-09-18T11:24:20.077Z,38.02
2022-09-18T11:26:50.426Z,37.30
2022-09-18T11:29:19.119Z,37.69
2022-09-18T11:31:46.992Z,37.08
2022-09-18T11:34:18.055Z,38.01
2022-09-18T11:36:46.741Z,36.48
2022-09-18T11:39:15.493Z,36.57
2022-09-18T11:41:43.262Z,36.46
2022-09-18T11:44:37.454Z,37.97
2022-09-18T11:47:09.792Z,37.80
2022-09-18T11:49:42.213Z,36.37
2022-09-18T11:52:16.044Z,35.94
2022-09-18T11:54:49.596Z,36.58
2022-09-18T11:57:17.955Z,36.41
2022-09-18T11:59:48.541Z,37.06
2022-09-18T12:02:21.944Z,37.05
2022-09-18T12:04:56.392Z,37.25
2022-09-18T12:07:40.902Z,35.17
2022-09-18T12:10:14.748Z,34.45
2022-09-18T12:12:47.633Z,34.91
2022-09-18T12:15:25.577Z,34.23
2022-09-18T12:17:54.503Z,32.96
2022-09-18T12:20:40.244Z,32.51
2022-09-18T12:23:12.448Z,33.14
2022-09-18T12:25:58.711Z,33.10
2022-09-18T12:28:38.956Z,33.05
2022-09-18T12:31:12.824Z,33.13
2022-09-18T12:33:55.979Z,32.22
2022-09-18T12:36:41.849Z,32.47
2022-09-18T12:39:14.806Z,32.34
2022-09-18T12:41:42.259Z,32.65
2022-09-18T12:44:14.183Z,31.90
2022-09-18T12:46:41.253Z,32.21
2022-09-18T12:49:27.157Z,32.55
2022-09-18T12:52:01.934Z,31.80
2022-09-18T12:54:32.346Z,29.55
2022-09-18T12:57:05.925Z,30.45
2022-09-18T12:59:39.129Z,31.51
2022-09-18T13:02:06.174Z,30.24
2022-09-18T13:04:35.770Z,28.91
2022-09-18T13:07:14.125Z,29.28
2022-09-18T13:09:44.593Z,29.14
2022-09-18T13:12:12.915Z,28.98
2022-09-18T13:14:44.517Z,28.51
2022-09-18T13:17:16.788Z,29.25
2022-09-18T13:19:53.047Z,30.19
2022-09-18T13:22:20.432Z,29.01
2022-09-18T13:24:48.803Z,29.91
2022-09-18T13:27:16.501Z,30.40
2022-09-18T13:29:53.053Z,30.85
2022-09-18T13:32:21.380Z,30.47
2022-09-18T13:34:52.986Z,30.44
2022-09-18T13:37:22.717Z,30.87
2022-09-18T13:40:09.195Z,31.45
2022-09-18T13:42:41.256Z,32.31
2022-09-18T13:45:14.950Z,34.16
2022-09-18T13:48:01.851Z,40.68
2022-09-18T13:50:29.317Z,46.18
2022-09-18T13:52:57.469Z,47.39
2022-09-18T13:55:26.694Z,45.21
2022-09-18T13:58:12.628Z,47.66
2022-09-18T14:00:40.253Z,46.88
2022-09-18T14:03:07.697Z,47.86
2022-09-18T14:05:35.664Z,49.90
2022-09-18T14:08:04.613Z,47.56
2022-09-18T14:10:37.156Z,46.48
2022-09-18T14:13:06.373Z,46.46
2022-09-18T14:15:33.812Z,45.15
2022-09-18T14:18:11.737Z,46.26
2022-09-18T14:20:39.175Z,44.57
2022-09-18T14:23:41.421Z,45.70
2022-09-18T14:26:09.179Z,46.37
2022-09-18T14:28:36.408Z,45.71
2022-09-18T14:31:18.084Z,44.18
2022-09-18T14:33:45.558Z,48.28
2022-09-18T14:36:14.736Z,48.09
2022-09-18T14:38:42.248Z,49.00
2022-09-18T14:41:16.054Z,49.25
2022-09-18T14:43:47.393Z,49.35
2022-09-18T14:46:18.991Z,51.96
2022-09-18T14:48:46.138Z,54.55
2022-09-18T14:51:19.255Z,52.70
2022-09-18T14:53:49.972Z,51.14
2022-09-18T14:56:18.386Z,50.36
2022-09-18T14:58:46.671Z,49.59
2022-09-18T15:01:15.265Z,50.65
2022-09-18T15:03:43.790Z,49.53
2022-09-18T15:06:24.279Z,46.63
2022-09-18T15:08:52.425Z,45.16
2022-09-18T15:11:20.494Z,45.46
2022-09-18T15:13:49.028Z,44.10
2022-09-18T15:16:21.405Z,44.57
2022-09-18T15:18:49.359Z,43.18
2022-09-18T15:21:23.918Z,43.41
2022-09-18T15:23:51.081Z,42.53
2022-09-18T15:26:18.672Z,42.12
2022-09-18T15:28:47.581Z,43.16
2022-09-18T15:31:14.784Z,42.34
2022-09-18T15:33:49.560Z,44.83
2022-09-18T15:36:21.538Z,44.41
2022-09-18T15:38:48.980Z,44.60
2022-09-18T15:41:22.238Z,45.81
2022-09-18T15:43:50.465Z,44.98
2022-09-18T15:46:24.658Z,45.49
2022-09-18T15:48:52.154Z,43.30
2022-09-18T15:51:26.148Z,45.94
2022-09-18T15:54:05.591Z,47.72
2022-09-18T15:56:34.092Z,48.31
2022-09-18T15:59:04.067Z,46.67
2022-09-18T16:01:35.620Z,46.18
2022-09-18T16:04:08.447Z,45.38
2022-09-18T16:06:37.843Z,47.40
2022-09-18T16:09:05.527Z,47.68
2022-09-18T16:11:32.583Z,47.75
2022-09-18T16:13:59.722Z,46.24
2022-09-18T16:16:27.231Z,48.16
2022-09-18T16:18:56.337Z,48.24
2022-09-18T16:21:24.603Z,49.03
2022-09-18T16:23:54.916Z,48.94
2022-09-18T16:26:24.711Z,46.99
2022-09-18T16:28:56.268Z,47.89
2022-09-18T16:31:24.782Z,48.70
2022-09-18T16:33:52.713Z,47.82
2022-09-18T16:36:34.133Z,49.33
2022-09-18T16:39:03.901Z,47.89
2022-09-18T16:41:31.170Z,47.47
2022-09-18T16:43:58.318Z,46.77
2022-09-18T16:46:27.857Z,46.12
2022-09-18T16:48:55.041Z,44.74
2022-09-18T16:51:22.799Z,43.86
2022-09-18T16:53:50.228Z,44.73
2022-09-18T16:56:17.794Z,44.62
2022-09-18T16:58:44.919Z,43.10
2022-09-18T17:01:12.367Z,42.92
2022-09-18T17:03:39.581Z,42.51
2022-09-18T17:06:06.752Z,42.57
2022-09-18T17:08:34.534Z,40.92
2022-09-18T17:11:02.228Z,41.52
2022-09-18T17:13:29.807Z,41.02
2022-09-18T17:16:01.576Z,40.63
2022-09-18T17:18:32.943Z,39.78
2022-09-18T17:21:01.660Z,40.27
2022-09-18T17:23:31.346Z,40.11
2022-09-18T17:26:09.716Z,39.50
2022-09-18T17:28:37.802Z,40.60
2022-09-18T17:31:10.165Z,41.31
2022-09-18T17:33:38.490Z,41.08
2022-09-18T17:36:06.788Z,41.03
2022-09-18T17:38:35.307Z,40.41
2022-09-18T17:41:03.856Z,40.41
2022-09-18T17:43:32.904Z,40.48
2022-09-18T17:46:01.162Z,41.44
2022-09-18T17:48:29.738Z,40.65
2022-09-18T17:51:00.994Z,44.42
2022-09-18T17:53:31.200Z,41.80
2022-09-18T17:55:59.470Z,41.55
2022-09-18T17:58:27.556Z,42.14
2022-09-18T18:00:55.693Z,41.67
2022-09-18T18:03:24.177Z,42.85
2022-09-18T18:05:51.867Z,42.42
2022-09-18T18:08:19.292Z,44.62
2022-09-18T18:10:47.046Z,42.34
2022-09-18T18:13:17.926Z,44.57
2022-09-18T18:15:45.272Z,42.54
2022-09-18T18:18:14.010Z,42.72
2022-09-18T18:20:49.344Z,41.80
2022-09-18T18:23:17.113Z,43.04
2022-09-18T18:25:44.258Z,42.08
2022-09-18T18:28:12.054Z,42.07
2022-09-18T18:30:40.030Z,41.75
2022-09-18T18:33:07.557Z,43.68
2022-09-18T18:35:35.323Z,43.11
2022-09-18T18:38:05.444Z,43.31
2022-09-18T18:40:33.067Z,43.09
2022-09-18T18:43:00.555Z,44.09
2022-09-18T18:45:28.386Z,42.98
2022-09-18T18:47:56.159Z,44.34
2022-09-18T18:50:23.758Z,46.44
2022-09-18T18:52:52.631Z,44.41
2022-09-18T18:55:20.296Z,44.91
2022-09-18T18:57:47.877Z,45.10
2022-09-18T19:00:15.536Z,45.57
2022-09-18T19:02:44.297Z,45.07
2022-09-18T19:05:13.508Z,44.27
2022-09-18T19:07:41.061Z,44.86
2022-09-18T19:10:08.462Z,44.56
2022-09-18T19:12:36.813Z,44.40
2022-09-18T19:15:04.460Z,44.45
2022-09-18T19:17:31.867Z,44.70
2022-09-18T19:19:59.254Z,43.25
2022-09-18T19:22:27.008Z,43.96
2022-09-18T19:24:54.316Z,44.48
2022-09-18T19:27:21.656Z,45.05
2022-09-18T19:29:49.296Z,44.13
2022-09-18T19:32:19.023Z,43.20
2022-09-18T19:34:46.207Z,43.80
2022-09-18T19:37:16.692Z,44.77
2022-09-18T19:39:49.034Z,44.22
2022-09-18T19:42:17.259Z,44.84
2022-09-18T19:44:48.414Z,45.02
2022-09-18T19:47:24.729Z,44.06
2022-09-18T19:49:52.322Z,45.94
2022-09-18T19:52:20.701Z,46.33
2022-09-18T19:54:48.254Z,50.47
2022-09-18T19:57:16.073Z,48.45
2022-09-18T19:59:43.762Z,52.09
2022-09-18T20:02:12.441Z,49.72
2022-09-18T20:04:41.011Z,48.51
2022-09-18T20:07:08.549Z,47.90
2022-09-18T20:09:35.700Z,48.72
2022-09-18T20:12:03.542Z,48.93
2022-09-18T20:14:30.690Z,47.62
2022-09-18T20:16:58.105Z,46.56
2022-09-18T20:19:26.082Z,48.46
2022-09-18T20:21:53.410Z,49.40
2022-09-18T20:24:20.637Z,46.61
2022-09-18T20:26:48.013Z,46.88
2022-09-18T20:29:16.385Z,44.16
2022-09-18T20:31:45.906Z,45.84
2022-09-18T20:34:13.961Z,45.10
2022-09-18T20:36:41.095Z,45.37
2022-09-18T20:39:08.751Z,45.41
2022-09-18T20:41:36.159Z,45.52
2022-09-18T20:44:05.266Z,46.24
2022-09-18T20:46:36.920Z,44.17
2022-09-18T20:49:05.189Z,44.50
2022-09-18T20:51:34.794Z,43.18
2022-09-18T20:54:02.437Z,43.13
2022-09-18T20:56:30.804Z,42.32
2022-09-18T20:58:58.052Z,43.94
2022-09-18T21:01:26.413Z,43.49
2022-09-18T21:03:57.762Z,41.28
2022-09-18T21:06:25.924Z,42.52
2022-09-18T21:08:54.157Z,42.80
2022-09-18T21:11:23.110Z,42.42
2022-09-18T21:13:57.771Z,42.82
2022-09-18T21:16:26.166Z,43.47
2022-09-18T21:18:55.686Z,43.55
2022-09-18T21:21:22.828Z,43.46
2022-09-18T21:24:02.354Z,44.78
2022-09-18T21:26:33.179Z,43.19
2022-09-18T21:29:01.837Z,43.55
2022-09-18T21:31:29.439Z,43.23
2022-09-18T21:33:59.208Z,41.66
2022-09-18T21:36:27.081Z,42.61
2022-09-18T21:38:55.482Z,41.47
2022-09-18T21:41:23.026Z,44.45
2022-09-18T21:43:51.135Z,43.52
2022-09-18T21:46:19.380Z,42.10
2022-09-18T21:48:47.512Z,42.34
2022-09-18T21:51:15.675Z,41.53
2022-09-18T21:53:43.200Z,43.90
2022-09-18T21:56:17.171Z,44.43
2022-09-18T21:58:45.118Z,44.06
2022-09-18T22:01:15.681Z,43.85
2022-09-18T22:03:50.480Z,45.47
2022-09-18T22:06:18.760Z,45.75
2022-09-18T22:08:50.088Z,42.10
2022-09-18T22:11:18.544Z,42.65
2022-09-18T22:13:46.481Z,43.23
2022-09-18T22:16:14.134Z,43.40
2022-09-18T22:18:41.472Z,41.71
2022-09-18T22:21:20.412Z,43.69
2022-09-18T22:23:48.414Z,44.07
2022-09-18T22:26:15.988Z,42.98
2022-09-18T22:28:46.198Z,43.98
2022-09-18T22:31:13.346Z,42.87
2022-09-18T22:33:40.721Z,43.76
2022-09-18T22:36:08.024Z,42.77
2022-09-18T22:38:35.153Z,43.38
2022-09-18T22:41:03.222Z,42.95
2022-09-18T22:43:30.385Z,43.31
2022-09-18T22:46:01.104Z,41.93
2022-09-18T22:48:28.763Z,43.42
2022-09-18T22:50:55.944Z,42.58
2022-09-18T22:53:23.117Z,41.33
2022-09-18T22:55:50.514Z,42.95
2022-09-18T22:58:17.839Z,44.26
2022-09-18T23:00:44.981Z,45.10
2022-09-18T23:03:12.713Z,43.73
2022-09-18T23:05:40.150Z,42.87
2022-09-18T23:08:08.580Z,43.73
2022-09-18T23:10:36.357Z,43.95
2022-09-18T23:13:03.506Z,42.90
2022-09-18T23:15:30.630Z,42.10
2022-09-18T23:17:58.015Z,42.46
2022-09-18T23:20:25.144Z,45.88
2022-09-18T23:22:52.279Z,43.70
2022-09-18T23:25:19.704Z,43.03
2022-09-18T23:27:46.831Z,44.65
2022-09-18T23:30:13.949Z,45.29
2022-09-18T23:32:42.431Z,42.22
2022-09-18T23:35:09.730Z,41.98
2022-09-18T23:37:36.852Z,43.04
2022-09-18T23:40:04.482Z,43.81
2022-09-18T23:42:31.674Z,41.62
2022-09-18T23:44:58.769Z,42.06
2022-09-18T23:47:26.160Z,41.40
2022-09-18T23:49:53.274Z,40.58
2022-09-18T23:52:20.401Z,39.70
2022-09-18T23:54:47.800Z,41.00
2022-09-18T23:57:14.915Z,39.99
2022-09-18T23:59:42.080Z,40.27
